Home > Products > Valid Products > MTR

000
SAUS46 KSEW 280504
MTRSMP
METAR KSMP 280456Z AUTO 23005KT 10SM CLR 16/12 A3024 RMK AO2 SLP215
T01560117 $





000
SAUS46 KSEW 272058
MTRSMP
METAR KSMP 272056Z AUTO 00000KT 10SM CLR 24/09 A3024 RMK AO2 SLP212
T02440089 58005 $





000
SAUS46 KSEW 261802
MTRSMP
METAR KSMP 261756Z AUTO VRB04KT 10SM CLR 16/07 A3023 RMK AO2 SLP224
T01560072 10161 20089 53008 $





000
SAUS46 KSEW 261603
MTRSMP
METAR KSMP 261556Z AUTO VRB05KT 10SM CLR 11/08 A3021 RMK AO2 SLP222
T01110083 $





000
SAUS46 KSEW 252202
MTRSMP
METAR KSMP 252156Z AUTO 10SM CLR 17/11 A3016 RMK AO2 SLP200
T01670106 $





000
SAUS46 KSEW 251234
MTRSMP
SPECI KSMP 251227Z AUTO VRB05KT 1/4SM FG VV002 07/06 A3017 RMK AO2
T00670056 $





000
SAUS46 KSEW 250857
MTRSMP
METAR KSMP 250856Z AUTO VRB05KT 1/4SM FG VV002 07/06 A3020 RMK AO2
SLP227 T00720061 57005 $





    US Dept of Commerce
    National Oceanic and Atmospheric Administration
    National Weather Service
    1325 East West Highway
    Silver Spring, MD 20910
    Page Author: NWS Internet Services Team
Disclaimer
Information Quality
Credits
Glossary
Privacy Policy
Freedom of Information Act (FOIA)
About Us
Career Opportunities